Time;durP1;ratioP1;P1;durP2;ratioP2;P2;SDS_P1;SDS_P2;PMS_P1;PMS_P2;Temp;Humidity;BMP_temperature;BMP_pressure;BME280_temperature;BME280_humidity;BME280_pressure;Samples;Min_cycle;Max_cycle;Signal;HPM_P1;HPM_P2
2021/05/17 00:00:49;;;;;;;0.95;0.40;;;19.00;71.00;;;;;;5050856;28;20492;-81
2021/05/17 00:03:17;;;;;;;2.47;0.30;;;19.00;71.00;;;;;;5050637;28;20112;-82
2021/05/17 00:05:43;;;;;;;1.40;0.30;;;18.90;71.00;;;;;;5052645;28;20124;-81
2021/05/17 00:08:09;;;;;;;1.40;0.40;;;19.00;71.20;;;;;;5053685;28;20111;-83
2021/05/17 00:10:35;;;;;;;0.95;0.30;;;18.90;71.20;;;;;;5054716;28;20021;-82
2021/05/17 00:13:01;;;;;;;0.45;0.30;;;18.90;71.30;;;;;;5053436;28;20031;-81
2021/05/17 00:15:27;;;;;;;0.90;0.52;;;18.90;71.30;;;;;;5054810;28;20029;-81
2021/05/17 00:17:55;;;;;;;2.47;0.47;;;18.90;71.20;;;;;;5054550;28;20485;-81
2021/05/17 00:20:22;;;;;;;1.83;0.60;;;18.90;71.20;;;;;;5055015;28;20052;-77
2021/05/17 00:22:48;;;;;;;1.83;0.40;;;18.90;71.50;;;;;;5054522;28;20029;-79
2021/05/17 00:25:14;;;;;;;1.45;0.50;;;18.90;71.40;;;;;;5054857;28;20528;-80
2021/05/17 00:27:41;;;;;;;0.70;0.30;;;18.80;71.40;;;;;;5052662;28;20484;-79
2021/05/17 00:30:09;;;;;;;1.00;0.22;;;18.90;71.50;;;;;;5055147;28;20112;-81
2021/05/17 00:32:36;;;;;;;1.48;0.40;;;18.80;71.40;;;;;;5053601;28;20021;-81
2021/05/17 00:35:03;;;;;;;1.38;0.60;;;18.80;71.50;;;;;;5054635;28;20036;-79
2021/05/17 00:37:29;;;;;;;1.27;0.40;;;18.80;71.50;;;;;;5053999;28;20033;-79
2021/05/17 00:39:55;;;;;;;0.77;0.38;;;18.80;71.60;;;;;;5053884;28;20516;-81
2021/05/17 00:42:21;;;;;;;1.27;0.50;;;18.80;71.60;;;;;;5054654;28;20037;-78
2021/05/17 00:44:47;;;;;;;2.00;0.40;;;18.80;71.50;;;;;;5054039;28;20021;-77
2021/05/17 00:47:15;;;;;;;1.85;0.40;;;18.80;71.70;;;;;;5054191;28;20033;-79
2021/05/17 00:49:43;;;;;;;1.05;0.30;;;18.70;71.70;;;;;;5054407;28;20013;-77
2021/05/17 00:52:10;;;;;;;2.42;0.40;;;18.70;71.70;;;;;;5054179;28;20082;-74
2021/05/17 00:54:36;;;;;;;2.22;0.40;;;18.70;71.70;;;;;;5054204;28;20025;-81
2021/05/17 00:57:02;;;;;;;3.63;0.70;;;18.70;71.80;;;;;;5053208;28;20123;-78
2021/05/17 00:59:28;;;;;;;1.58;0.47;;;18.70;71.70;;;;;;5054366;28;20037;-82
2021/05/17 01:01:54;;;;;;;2.33;0.75;;;18.70;71.70;;;;;;5053475;28;20067;-77
2021/05/17 01:04:20;;;;;;;0.43;0.30;;;18.70;71.70;;;;;;5053944;28;20122;-76
2021/05/17 01:06:50;;;;;;;2.58;0.50;;;18.70;71.90;;;;;;5052533;28;20473;-75
2021/05/17 01:09:16;;;;;;;3.80;0.40;;;18.70;71.80;;;;;;5054136;28;20021;-75
2021/05/17 01:11:42;;;;;;;3.17;0.50;;;18.60;71.70;;;;;;5054075;28;20457;-75
2021/05/17 01:14:08;;;;;;;2.03;0.45;;;18.60;71.70;;;;;;5053052;28;20021;-79
2021/05/17 01:16:36;;;;;;;2.00;0.50;;;18.60;71.80;;;;;;5052219;28;20104;-74
2021/05/17 01:19:09;;;;;;;2.15;0.50;;;18.60;71.70;;;;;;5053757;28;20385;-74
2021/05/17 01:21:36;;;;;;;1.55;0.45;;;18.60;71.70;;;;;;5053050;28;20432;-73
2021/05/17 01:24:03;;;;;;;2.72;0.40;;;18.60;71.80;;;;;;5053462;28;20053;-73
2021/05/17 01:26:31;;;;;;;2.90;0.52;;;18.60;71.80;;;;;;5053527;28;20051;-73
2021/05/17 01:28:59;;;;;;;2.20;0.60;;;18.50;71.90;;;;;;5053541;28;20401;-80
2021/05/17 01:31:25;;;;;;;2.20;0.45;;;18.50;71.80;;;;;;5053018;28;20032;-80
2021/05/17 01:33:51;;;;;;;1.45;0.70;;;18.50;71.80;;;;;;5053310;28;20029;-82
2021/05/17 01:36:17;;;;;;;1.67;0.45;;;18.50;71.90;;;;;;5052987;28;20531;-81
2021/05/17 01:38:51;;;;;;;2.55;0.50;;;18.50;71.90;;;;;;5053453;28;20028;-81
2021/05/17 01:41:19;;;;;;;1.40;0.60;;;18.50;71.80;;;;;;5052106;28;20028;-82
2021/05/17 01:43:54;;;;;;;3.78;0.82;;;18.40;71.80;;;;;;5053328;28;20489;-82
2021/05/17 01:46:24;;;;;;;2.60;0.57;;;18.50;71.90;;;;;;5052511;28;20546;-81
2021/05/17 01:48:50;;;;;;;3.47;0.55;;;18.50;72.00;;;;;;5053449;28;20025;-81
2021/05/17 01:51:18;;;;;;;2.38;0.57;;;18.50;72.00;;;;;;5053043;28;20032;-81
2021/05/17 01:53:45;;;;;;;2.22;0.50;;;18.40;72.00;;;;;;5053578;28;20381;-79
2021/05/17 01:56:12;;;;;;;1.95;0.60;;;18.40;72.00;;;;;;5053302;28;20021;-81
2021/05/17 01:58:38;;;;;;;2.17;0.60;;;18.40;72.10;;;;;;5052822;28;20028;-80
2021/05/17 02:01:10;;;;;;;2.58;0.70;;;18.40;72.00;;;;;;5052462;28;20033;-80
2021/05/17 02:03:37;;;;;;;2.42;0.50;;;18.40;72.10;;;;;;5051335;28;20037;-82
2021/05/17 02:06:04;;;;;;;2.88;0.52;;;18.40;72.00;;;;;;5052710;28;20396;-80
2021/05/17 02:08:31;;;;;;;2.78;0.65;;;18.40;71.90;;;;;;5051154;28;20033;-81
2021/05/17 02:10:57;;;;;;;2.80;0.47;;;18.30;72.00;;;;;;5052581;28;20032;-83
2021/05/17 02:13:25;;;;;;;2.72;0.70;;;18.40;72.20;;;;;;5052977;28;20078;-81
2021/05/17 02:15:51;;;;;;;3.22;0.52;;;18.30;72.00;;;;;;5052574;28;20029;-82
2021/05/17 02:18:19;;;;;;;2.28;0.50;;;18.30;72.00;;;;;;5052890;28;20036;-80
2021/05/17 02:20:46;;;;;;;1.40;0.60;;;18.30;72.00;;;;;;5052328;28;20052;-80
2021/05/17 02:23:17;;;;;;;2.05;0.40;;;18.30;72.10;;;;;;5052697;28;20033;-79
2021/05/17 02:25:48;;;;;;;4.00;0.80;;;18.40;72.20;;;;;;5052541;28;20044;-79
2021/05/17 02:28:14;;;;;;;2.08;0.55;;;18.30;72.00;;;;;;5051525;28;20040;-80
2021/05/17 02:30:40;;;;;;;2.80;0.68;;;18.30;72.10;;;;;;5051810;28;20029;-80
2021/05/17 02:33:07;;;;;;;5.25;0.90;;;18.30;72.10;;;;;;5051925;28;20116;-79
2021/05/17 02:35:33;;;;;;;3.00;0.63;;;18.30;72.20;;;;;;5052214;28;20032;-80
2021/05/17 02:38:00;;;;;;;3.88;0.63;;;18.20;72.20;;;;;;5052109;28;20016;-81
2021/05/17 02:40:26;;;;;;;3.50;0.63;;;18.20;72.10;;;;;;5052467;28;20032;-80
2021/05/17 02:43:03;;;;;;;2.28;0.70;;;18.20;72.30;;;;;;5051752;28;20025;-81
2021/05/17 02:45:29;;;;;;;4.47;0.65;;;18.20;72.30;;;;;;5051898;28;20131;-82
2021/05/17 02:48:00;;;;;;;1.95;0.90;;;18.20;72.20;;;;;;5067123;28;20033;-83
2021/05/17 02:50:34;;;;;;;3.38;0.73;;;18.20;72.20;;;;;;5052179;28;20052;-82
2021/05/17 02:53:02;;;;;;;2.17;0.63;;;18.20;72.20;;;;;;5051993;28;20021;-81
2021/05/17 02:55:32;;;;;;;2.78;0.80;;;18.20;72.10;;;;;;5052099;28;20519;-82
2021/05/17 02:58:18;;;;;;;2.65;0.65;;;18.20;72.30;;;;;;5051417;28;20358;-80
2021/05/17 03:00:52;;;;;;;6.55;1.30;;;18.20;72.40;;;;;;5051487;28;20397;-81
2021/05/17 03:03:21;;;;;;;2.47;0.80;;;18.20;72.40;;;;;;5051792;28;20076;-81
2021/05/17 03:06:02;;;;;;;4.55;0.60;;;18.10;72.20;;;;;;5051239;28;20067;-73
2021/05/17 03:08:32;;;;;;;3.47;0.73;;;18.10;72.20;;;;;;5051531;28;20036;-79
2021/05/17 03:11:00;;;;;;;3.33;0.70;;;18.10;72.20;;;;;;5051874;28;20039;-81
2021/05/17 03:13:27;;;;;;;3.78;0.90;;;18.10;72.30;;;;;;5050078;28;20025;-80
2021/05/17 03:15:53;;;;;;;4.47;0.80;;;18.10;72.20;;;;;;5051418;28;20131;-80
2021/05/17 03:18:18;;;;;;;4.82;0.88;;;18.10;72.20;;;;;;5051308;28;20112;-80
2021/05/17 03:20:44;;;;;;;2.63;0.75;;;18.10;72.20;;;;;;5051778;28;20036;-79
2021/05/17 03:23:15;;;;;;;4.13;0.80;;;18.10;72.30;;;;;;5051676;28;20025;-77
2021/05/17 03:25:47;;;;;;;5.60;0.90;;;18.10;73.10;;;;;;5049947;28;20033;-79
2021/05/17 03:28:13;;;;;;;4.00;0.90;;;18.00;72.30;;;;;;5051103;28;20017;-77
2021/05/17 03:30:38;;;;;;;5.15;1.17;;;18.00;72.20;;;;;;5051107;28;20043;-80
2021/05/17 03:33:05;;;;;;;6.93;1.13;;;18.00;72.30;;;;;;5050749;28;20029;-80
2021/05/17 03:35:31;;;;;;;3.63;0.75;;;18.00;72.30;;;;;;5051435;28;20040;-76
2021/05/17 03:37:56;;;;;;;3.33;1.00;;;18.00;72.40;;;;;;5051350;28;20032;-79
2021/05/17 03:40:22;;;;;;;3.40;0.90;;;18.00;72.40;;;;;;5050206;28;20100;-73
2021/05/17 03:42:48;;;;;;;3.83;0.73;;;18.00;72.50;;;;;;5051831;28;20029;-77
2021/05/17 03:45:15;;;;;;;3.17;0.60;;;18.00;72.50;;;;;;5051452;28;20124;-73
2021/05/17 03:47:40;;;;;;;4.13;0.75;;;18.00;72.40;;;;;;5050925;28;20029;-74
2021/05/17 03:50:08;;;;;;;2.05;0.73;;;18.00;72.40;;;;;;5050997;28;20118;-76
2021/05/17 03:52:34;;;;;;;3.97;0.82;;;18.00;72.50;;;;;;5050751;28;20447;-83
2021/05/17 03:54:59;;;;;;;3.40;0.98;;;17.90;72.40;;;;;;5051316;28;20112;-82
2021/05/17 03:57:26;;;;;;;6.82;1.05;;;18.00;72.50;;;;;;5049604;28;20104;-83
2021/05/17 03:59:51;;;;;;;3.33;0.98;;;17.90;72.50;;;;;;5051103;28;20036;-82
2021/05/17 04:02:20;;;;;;;4.57;0.85;;;17.90;72.50;;;;;;5051010;28;20055;-82
2021/05/17 04:05:03;;;;;;;2.72;0.77;;;17.90;72.40;;;;;;5050193;28;20033;-82
2021/05/17 04:15:33;;;;;;;5.78;0.98;;;17.90;72.70;;;;;;5050634;28;20072;-83
2021/05/17 04:17:58;;;;;;;4.43;0.90;;;17.90;72.60;;;;;;5049479;28;20488;-82
2021/05/17 04:20:24;;;;;;;3.63;0.80;;;17.90;72.80;;;;;;5049856;28;20017;-81
2021/05/17 04:22:50;;;;;;;2.60;0.77;;;17.90;72.90;;;;;;5050646;28;20063;-81
2021/05/17 04:25:16;;;;;;;2.67;0.50;;;17.90;72.80;;;;;;5051081;28;20025;-82
2021/05/17 04:27:41;;;;;;;3.10;0.70;;;17.80;72.80;;;;;;5050642;28;20033;-80
2021/05/17 04:30:08;;;;;;;3.92;0.95;;;17.80;72.70;;;;;;5050456;28;20025;-83
2021/05/17 04:32:34;;;;;;;2.90;0.77;;;17.80;72.90;;;;;;5050885;28;20021;-84
2021/05/17 04:35:00;;;;;;;4.38;0.88;;;17.80;72.90;;;;;;5050587;28;20028;-84
2021/05/17 04:37:25;;;;;;;3.45;1.05;;;17.80;73.00;;;;;;5050963;28;20059;-82
2021/05/17 04:39:52;;;;;;;2.58;0.95;;;17.80;73.00;;;;;;5050726;28;20112;-83
2021/05/17 04:42:18;;;;;;;3.45;0.70;;;17.80;73.00;;;;;;5050906;28;20373;-83
2021/05/17 04:44:44;;;;;;;3.45;0.80;;;17.80;73.00;;;;;;5049276;28;20029;-82
2021/05/17 04:47:09;;;;;;;3.55;0.73;;;17.80;73.00;;;;;;5050534;28;20025;-81
2021/05/17 04:49:35;;;;;;;4.05;0.88;;;17.80;73.00;;;;;;5049096;28;20056;-79
2021/05/17 04:52:00;;;;;;;3.83;0.55;;;17.80;73.70;;;;;;5052623;28;20043;-81
2021/05/17 04:54:26;;;;;;;4.85;0.80;;;17.80;73.00;;;;;;5054492;28;20053;-83
2021/05/17 04:56:52;;;;;;;2.03;0.50;;;17.80;73.10;;;;;;5054154;28;20021;-82
2021/05/17 04:59:17;;;;;;;3.10;0.63;;;17.80;72.90;;;;;;5054653;28;20025;-81
2021/05/17 05:01:43;;;;;;;2.50;0.50;;;17.80;72.90;;;;;;5053439;28;20037;-83
2021/05/17 05:04:08;;;;;;;5.20;0.95;;;17.80;73.00;;;;;;5052773;28;20463;-82
2021/05/17 05:06:34;;;;;;;3.63;0.52;;;17.80;73.00;;;;;;5054114;28;20119;-82
2021/05/17 05:09:00;;;;;;;4.70;1.05;;;17.80;73.80;;;;;;5053574;28;20056;-80
2021/05/17 05:11:25;;;;;;;2.50;0.60;;;17.70;73.00;;;;;;5053299;28;20036;-79
2021/05/17 05:13:51;;;;;;;4.25;0.80;;;17.70;73.10;;;;;;5054406;28;20028;-78
2021/05/17 05:16:17;;;;;;;1.85;0.70;;;17.70;73.20;;;;;;5053674;28;20068;-79
2021/05/17 05:18:42;;;;;;;3.53;0.82;;;17.70;73.10;;;;;;5054012;28;20104;-80
2021/05/17 05:21:08;;;;;;;2.80;0.70;;;17.70;73.10;;;;;;5053395;28;20067;-81
2021/05/17 05:23:33;;;;;;;2.78;0.75;;;17.70;73.10;;;;;;5053196;28;20028;-78
2021/05/17 05:28:46;;;;;;;3.95;1.08;;;17.70;73.10;;;;;;5053476;28;20036;-80
2021/05/17 05:33:45;;;;;;;4.30;1.13;;;17.70;73.30;;;;;;5053191;28;20477;-77
2021/05/17 05:36:11;;;;;;;4.45;0.80;;;17.70;73.20;;;;;;5052933;28;20104;-76
2021/05/17 05:38:37;;;;;;;4.28;0.90;;;17.70;73.30;;;;;;5053169;28;20116;-76
2021/05/17 05:41:02;;;;;;;3.58;0.88;;;17.70;73.30;;;;;;5053498;28;20092;-76
2021/05/17 05:43:28;;;;;;;3.22;0.60;;;17.70;73.30;;;;;;5052281;28;20443;-75
2021/05/17 05:45:54;;;;;;;3.85;1.10;;;17.70;73.40;;;;;;5053424;28;20067;-75
2021/05/17 05:48:19;;;;;;;5.07;0.95;;;17.70;73.40;;;;;;5053148;28;20036;-74
2021/05/17 05:50:46;;;;;;;3.00;0.98;;;17.70;73.50;;;;;;5053073;28;20108;-73
2021/05/17 05:53:16;;;;;;;4.18;1.25;;;17.60;73.40;;;;;;5052707;28;20025;-74
2021/05/17 05:55:43;;;;;;;3.35;1.10;;;17.70;73.40;;;;;;5052784;28;20120;-74
2021/05/17 05:58:09;;;;;;;4.13;1.00;;;17.60;73.40;;;;;;5053271;28;20013;-75
2021/05/17 06:00:34;;;;;;;4.10;1.00;;;17.60;73.40;;;;;;5052691;28;20108;-74
2021/05/17 06:03:01;;;;;;;6.88;1.17;;;17.60;73.30;;;;;;5051796;28;20036;-74
2021/05/17 06:05:27;;;;;;;4.35;1.38;;;17.60;73.40;;;;;;5045930;28;20098;-73
2021/05/17 06:07:53;;;;;;;5.43;1.00;;;17.60;73.40;;;;;;5053084;28;20060;-73
2021/05/17 06:10:20;;;;;;;3.45;1.13;;;17.60;73.40;;;;;;5051593;28;20025;-83
2021/05/17 06:12:47;;;;;;;5.50;1.38;;;17.60;73.60;;;;;;5052708;28;20025;-87
2021/05/17 06:15:18;;;;;;;4.70;1.00;;;17.60;73.60;;;;;;5052925;28;20484;-82
2021/05/17 06:17:44;;;;;;;5.13;1.38;;;17.60;74.00;;;;;;5052162;28;20083;-84
2021/05/17 06:20:12;;;;;;;9.07;1.40;;;17.60;74.00;;;;;;5052537;28;20049;-81
2021/05/17 06:22:38;;;;;;;5.70;1.38;;;17.70;74.30;;;;;;5051831;28;20035;-82
2021/05/17 06:25:09;;;;;;;4.90;1.20;;;17.60;74.30;;;;;;5051728;28;20485;-84
2021/05/17 06:27:39;;;;;;;5.60;1.42;;;17.70;75.40;;;;;;5052154;28;20051;-78
2021/05/17 06:30:07;;;;;;;2.70;0.70;;;17.70;74.90;;;;;;5052098;28;20021;-80
2021/05/17 06:32:35;;;;;;;6.25;0.80;;;17.80;75.20;;;;;;5049270;28;20032;-78
2021/05/17 06:35:02;;;;;;;7.22;1.20;;;17.80;75.40;;;;;;5050557;28;20377;-78
2021/05/17 06:37:28;;;;;;;9.98;1.60;;;17.90;75.60;;;;;;5052322;28;20115;-74
2021/05/17 06:39:54;;;;;;;12.77;1.85;;;18.00;75.80;;;;;;5052370;28;20487;-80
2021/05/17 06:42:20;;;;;;;7.47;1.25;;;18.00;75.70;;;;;;5052441;28;20040;-81
2021/05/17 06:44:46;;;;;;;7.03;1.58;;;18.10;75.70;;;;;;5052029;28;20025;-78
2021/05/17 06:47:12;;;;;;;7.18;2.10;;;18.20;76.30;;;;;;5051631;28;20532;-77
2021/05/17 06:49:39;;;;;;;6.28;1.95;;;18.30;75.60;;;;;;5052349;28;20492;-80
2021/05/17 06:52:06;;;;;;;7.50;2.45;;;18.30;75.00;;;;;;5051382;28;20029;-78
2021/05/17 06:54:33;;;;;;;7.40;2.53;;;18.40;75.20;;;;;;5050350;28;20033;-77
2021/05/17 06:57:15;;;;;;;4.78;1.90;;;18.50;75.30;;;;;;5051714;28;20025;-78
2021/05/17 06:59:45;;;;;;;5.88;2.08;;;18.50;74.60;;;;;;5051969;28;20036;-76
2021/05/17 07:02:19;;;;;;;6.13;1.83;;;18.60;74.30;;;;;;5051507;28;20075;-80
2021/05/17 07:04:46;;;;;;;6.15;1.75;;;18.60;74.20;;;;;;5051751;28;20041;-77
2021/05/17 07:07:18;;;;;;;8.15;2.45;;;18.60;74.00;;;;;;5050104;28;20484;-79
2021/05/17 07:12:28;;;;;;;7.78;1.80;;;18.60;74.10;;;;;;5052609;28;20036;-87
2021/05/17 07:14:55;;;;;;;7.40;2.08;;;18.60;74.00;;;;;;5048506;28;20029;-84
2021/05/17 07:17:20;;;;;;;6.68;1.92;;;18.60;74.40;;;;;;5050915;28;20630;-83
2021/05/17 07:19:46;;;;;;;7.40;1.50;;;18.60;74.20;;;;;;5051312;28;20029;-83
2021/05/17 07:24:56;;;;;;;6.20;1.92;;;18.60;74.20;;;;;;5051370;28;20083;-85
2021/05/17 07:27:21;;;;;;;7.60;2.20;;;18.50;74.20;;;;;;5051094;28;20393;-83
2021/05/17 07:29:49;;;;;;;4.40;1.63;;;18.50;74.00;;;;;;5083704;28;20558;-82
2021/05/17 07:32:15;;;;;;;7.85;1.80;;;18.50;74.10;;;;;;5050399;28;20025;-84
2021/05/17 07:34:40;;;;;;;8.25;1.80;;;18.50;74.10;;;;;;5051199;28;20033;-83
2021/05/17 07:37:07;;;;;;;5.10;1.65;;;18.50;74.10;;;;;;5050960;28;20140;-84
2021/05/17 07:39:33;;;;;;;5.57;1.60;;;18.50;73.90;;;;;;5046687;28;20076;-85
2021/05/17 07:41:59;;;;;;;4.38;1.70;;;18.50;73.70;;;;;;5031993;28;20025;-86
2021/05/17 07:44:25;;;;;;;9.40;1.80;;;18.50;73.70;;;;;;5043296;28;20405;-85
2021/05/17 07:46:50;;;;;;;4.82;1.55;;;18.50;73.50;;;;;;5049640;28;20036;-83
2021/05/17 07:49:23;;;;;;;5.35;1.67;;;18.50;73.60;;;;;;5040803;28;20598;-84
2021/05/17 07:51:49;;;;;;;3.38;1.05;;;18.50;74.20;;;;;;5050717;28;20036;-85
2021/05/17 07:54:17;;;;;;;7.20;1.80;;;18.40;73.50;;;;;;5051423;28;20025;-84
2021/05/17 07:56:43;;;;;;;4.65;1.40;;;18.40;73.40;;;;;;5050900;28;20037;-81
2021/05/17 07:59:09;;;;;;;4.55;1.20;;;18.40;73.30;;;;;;5051186;28;20021;-80
2021/05/17 08:01:35;;;;;;;5.57;1.20;;;18.50;73.40;;;;;;5051187;28;20033;-82
2021/05/17 08:04:00;;;;;;;4.68;1.10;;;18.40;73.30;;;;;;5051653;28;20031;-85
2021/05/17 08:06:26;;;;;;;4.20;1.40;;;18.40;73.30;;;;;;5050241;28;20041;-82
2021/05/17 08:08:53;;;;;;;5.68;1.50;;;18.40;73.50;;;;;;5050299;28;20400;-80
2021/05/17 08:11:19;;;;;;;4.03;1.00;;;18.40;73.60;;;;;;5050897;28;20079;-80
2021/05/17 08:13:45;;;;;;;5.28;1.40;;;18.30;73.50;;;;;;5051234;28;20045;-82
2021/05/17 08:16:14;;;;;;;3.38;1.23;;;18.30;73.60;;;;;;5051043;28;20095;-75
2021/05/17 08:18:40;;;;;;;3.58;1.25;;;18.30;73.50;;;;;;5049594;28;20424;-73
2021/05/17 08:21:06;;;;;;;4.03;1.10;;;18.30;73.40;;;;;;5051011;28;20029;-75
2021/05/17 08:23:32;;;;;;;5.95;1.65;;;18.30;73.60;;;;;;5051524;28;20111;-74
2021/05/17 08:25:58;;;;;;;2.95;1.10;;;18.30;73.40;;;;;;5050969;28;20112;-79
2021/05/17 08:28:23;;;;;;;4.07;1.00;;;18.30;73.40;;;;;;5054247;28;20082;-87
2021/05/17 08:30:54;;;;;;;3.40;1.13;;;18.30;73.40;;;;;;5053685;28;20028;-85
2021/05/17 08:33:21;;;;;;;5.00;1.38;;;18.30;74.00;;;;;;5054221;28;20543;-86
2021/05/17 08:35:47;;;;;;;4.25;1.38;;;18.30;73.30;;;;;;5054837;28;20028;-83
2021/05/17 08:38:12;;;;;;;4.47;1.27;;;18.30;73.30;;;;;;5054677;28;20025;-86
2021/05/17 08:40:41;;;;;;;4.13;0.95;;;18.30;73.40;;;;;;5054124;28;20036;-85
2021/05/17 08:43:07;;;;;;;3.78;1.15;;;18.30;73.40;;;;;;5053001;28;20466;-82
2021/05/17 08:45:33;;;;;;;6.28;1.35;;;18.30;74.20;;;;;;5053005;28;20116;-89
2021/05/17 08:48:03;;;;;;;2.78;1.00;;;18.30;73.50;;;;;;5049583;28;20036;-89
2021/05/17 08:50:29;;;;;;;2.65;1.08;;;18.30;73.40;;;;;;5053354;28;20042;-86
2021/05/17 08:52:56;;;;;;;3.47;1.13;;;18.30;73.40;;;;;;5054737;28;20095;-88
2021/05/17 08:55:21;;;;;;;4.38;0.95;;;18.40;73.20;;;;;;5054573;28;20025;-85
2021/05/17 08:57:48;;;;;;;3.17;1.38;;;18.40;73.10;;;;;;5054471;28;20048;-85
2021/05/17 09:00:20;;;;;;;6.22;1.10;;;18.50;72.80;;;;;;5069182;28;20037;-84
2021/05/17 09:02:46;;;;;;;3.85;1.02;;;18.50;72.70;;;;;;5053342;28;20059;-85
2021/05/17 09:05:21;;;;;;;4.35;1.13;;;18.50;72.70;;;;;;5053148;28;20033;-82
2021/05/17 09:07:50;;;;;;;3.65;1.00;;;18.50;72.70;;;;;;5053927;28;20032;-85
2021/05/17 09:10:35;;;;;;;3.00;1.00;;;18.60;72.60;;;;;;5086243;28;20568;-83
2021/05/17 09:13:09;;;;;;;3.60;1.10;;;18.50;72.80;;;;;;5054203;28;20036;-82
2021/05/17 09:15:36;;;;;;;4.43;1.17;;;18.40;73.00;;;;;;5053887;28;20032;-81
2021/05/17 09:18:11;;;;;;;4.00;1.00;;;18.40;73.30;;;;;;5054328;28;20424;-83
2021/05/17 09:20:38;;;;;;;3.30;1.23;;;18.40;73.60;;;;;;5053295;28;20025;-82
2021/05/17 09:23:26;;;;;;;3.42;0.85;;;18.30;73.70;;;;;;5052519;28;20126;-85
2021/05/17 09:26:11;;;;;;;4.10;1.33;;;18.30;73.90;;;;;;5047695;28;20041;-83
2021/05/17 09:28:37;;;;;;;5.32;1.90;;;18.30;74.10;;;;;;5052741;28;20029;-83
2021/05/17 09:31:06;;;;;;;3.85;0.95;;;18.30;74.30;;;;;;5053008;28;20070;-88
2021/05/17 09:33:41;;;;;;;3.17;1.13;;;18.30;74.20;;;;;;5052942;28;20045;-86
2021/05/17 09:36:39;;;;;;;3.42;1.00;;;18.30;74.10;;;;;;5053394;28;20481;-85
2021/05/17 09:39:12;;;;;;;4.25;1.08;;;18.30;74.00;;;;;;5051755;28;20017;-86
2021/05/17 09:41:50;;;;;;;3.78;1.20;;;18.30;74.10;;;;;;5053727;28;20033;-85
2021/05/17 09:44:21;;;;;;;3.40;1.13;;;18.40;74.10;;;;;;5053573;28;20432;-85
2021/05/17 09:47:02;;;;;;;4.57;1.35;;;18.40;73.90;;;;;;5052937;28;20033;-81
2021/05/17 09:49:51;;;;;;;3.90;0.95;;;18.40;73.50;;;;;;5053206;28;20032;-85
2021/05/17 09:52:21;;;;;;;2.17;0.98;;;18.50;73.30;;;;;;5053334;28;20029;-84
2021/05/17 09:54:58;;;;;;;3.63;0.90;;;18.50;73.20;;;;;;5051847;28;20059;-81
2021/05/17 09:57:29;;;;;;;2.60;1.00;;;18.50;73.10;;;;;;5053071;28;20055;-81
2021/05/17 09:59:57;;;;;;;3.17;0.98;;;18.50;73.40;;;;;;5053060;28;20021;-77
2021/05/17 10:02:45;;;;;;;4.45;1.20;;;18.50;74.70;;;;;;5085070;28;20057;-78
2021/05/17 10:05:12;;;;;;;3.13;1.00;;;18.60;76.30;;;;;;5052378;28;20045;-78
2021/05/17 10:07:38;;;;;;;2.75;1.08;;;18.60;76.70;;;;;;5053084;28;20057;-77
2021/05/17 10:10:05;;;;;;;3.47;1.08;;;18.60;76.70;;;;;;5053052;28;20454;-76
2021/05/17 10:12:31;;;;;;;4.38;1.27;;;18.60;77.20;;;;;;5053018;28;20021;-78
2021/05/17 10:14:57;;;;;;;3.03;1.10;;;18.50;77.50;;;;;;5051438;28;20029;-76
2021/05/17 10:17:23;;;;;;;2.60;1.02;;;18.50;78.60;;;;;;5053061;28;20354;-77
2021/05/17 10:19:49;;;;;;;4.32;1.58;;;18.50;78.20;;;;;;5052798;28;20508;-77
2021/05/17 10:22:16;;;;;;;2.53;1.15;;;18.50;78.40;;;;;;5052831;28;20116;-76
2021/05/17 10:24:41;;;;;;;3.15;1.50;;;18.40;78.60;;;;;;5052762;28;20057;-75
2021/05/17 10:27:08;;;;;;;2.40;1.33;;;18.50;78.40;;;;;;5050912;28;20021;-75
2021/05/17 10:29:37;;;;;;;3.90;1.05;;;18.40;78.30;;;;;;5050944;28;20029;-76
2021/05/17 10:32:06;;;;;;;3.45;0.90;;;18.50;78.50;;;;;;5065443;28;21451;-75
2021/05/17 10:34:32;;;;;;;3.83;1.00;;;18.50;77.70;;;;;;5048196;28;20151;-74
2021/05/17 10:37:00;;;;;;;4.07;1.00;;;18.60;77.30;;;;;;5050533;28;20032;-76
2021/05/17 10:39:41;;;;;;;1.80;0.80;;;18.70;77.00;;;;;;5050208;28;20021;-74
2021/05/17 10:42:41;;;;;;;3.00;0.82;;;18.80;76.80;;;;;;5050399;28;20028;-74
2021/05/17 10:48:24;;;;;;;2.30;0.73;;;19.00;76.60;;;;;;5050728;28;20035;-76
2021/05/17 10:51:17;;;;;;;2.60;0.90;;;19.20;76.60;;;;;;5043279;28;20084;-76
2021/05/17 10:53:58;;;;;;;3.67;0.75;;;19.30;76.90;;;;;;5048193;28;20033;-77
2021/05/17 10:56:40;;;;;;;3.15;1.00;;;19.40;76.70;;;;;;5049714;28;20021;-75
2021/05/17 11:02:00;;;;;;;2.45;0.90;;;19.70;78.90;;;;;;5050852;28;20043;-78
2021/05/17 11:04:35;;;;;;;1.43;0.80;;;19.80;79.90;;;;;;5048344;28;20021;-83
2021/05/17 11:07:10;;;;;;;14.80;5.87;;;20.00;80.20;;;;;;5050609;28;20029;-77
2021/05/17 11:09:40;;;;;;;23.98;11.60;;;20.60;78.60;;;;;;5050171;28;20070;-80
2021/05/17 11:12:24;;;;;;;25.60;12.52;;;21.00;75.60;;;;;;5050879;28;20036;-78
2021/05/17 11:15:10;;;;;;;20.58;10.23;;;21.20;73.50;;;;;;5050211;28;20544;-79
2021/05/17 11:18:07;;;;;;;26.38;10.18;;;21.10;74.50;;;;;;5050507;28;20031;-79
2021/05/17 11:20:41;;;;;;;20.85;9.68;;;21.00;74.80;;;;;;5051749;28;20044;-79
2021/05/17 11:23:31;;;;;;;16.97;7.40;;;20.90;74.60;;;;;;5050910;28;20436;-78
2021/05/17 11:26:09;;;;;;;16.85;6.40;;;20.90;75.10;;;;;;5046907;28;20119;-77
2021/05/17 11:28:41;;;;;;;16.70;6.32;;;20.90;75.30;;;;;;5044741;28;20036;-78
2021/05/17 11:34:07;;;;;;;18.42;5.50;;;20.80;75.40;;;;;;5031914;28;20378;-79
2021/05/17 11:36:46;;;;;;;13.07;5.30;;;20.70;75.70;;;;;;5031898;28;20444;-78
2021/05/17 11:39:22;;;;;;;14.07;4.40;;;20.60;75.90;;;;;;5049574;28;20041;-76
2021/05/17 11:41:47;;;;;;;10.82;4.57;;;20.60;75.80;;;;;;5051536;28;20016;-80
2021/05/17 11:44:26;;;;;;;11.38;4.63;;;20.60;76.20;;;;;;5051937;28;20035;-79
2021/05/17 11:46:59;;;;;;;10.38;4.55;;;20.60;76.80;;;;;;5050704;28;20040;-76
2021/05/17 11:49:27;;;;;;;10.65;4.55;;;20.60;76.50;;;;;;5051093;28;20493;-76
2021/05/17 11:51:58;;;;;;;8.60;3.63;;;20.50;76.30;;;;;;5051544;28;20104;-76
2021/05/17 11:54:29;;;;;;;15.05;3.95;;;20.50;76.10;;;;;;5051477;28;20477;-76
2021/05/17 11:56:58;;;;;;;7.93;3.63;;;20.50;76.30;;;;;;5049851;28;20029;-76
2021/05/17 11:59:28;;;;;;;12.20;4.13;;;20.50;77.00;;;;;;5051362;28;20013;-77
2021/05/17 12:01:57;;;;;;;11.77;3.95;;;20.60;76.80;;;;;;5053712;28;20025;-75
2021/05/17 12:04:23;;;;;;;5.75;3.05;;;20.60;76.50;;;;;;5055394;28;20032;-77
2021/05/17 12:06:49;;;;;;;8.40;3.50;;;20.50;76.50;;;;;;5055359;28;20033;-78
2021/05/17 12:09:43;;;;;;;11.98;3.90;;;20.50;76.60;;;;;;5054440;28;20021;-78
2021/05/17 12:12:25;;;;;;;8.18;3.42;;;20.40;76.70;;;;;;5055332;28;20021;-76
2021/05/17 12:14:56;;;;;;;8.25;3.22;;;20.40;76.80;;;;;;5055375;28;20040;-77
2021/05/17 12:17:24;;;;;;;8.32;3.40;;;20.40;76.60;;;;;;5053473;28;20031;-74
2021/05/17 12:19:58;;;;;;;7.25;2.35;;;20.40;77.20;;;;;;5055114;28;20029;-76
2021/05/17 12:22:30;;;;;;;8.68;2.75;;;20.40;76.50;;;;;;5055138;28;20029;-77
2021/05/17 12:24:57;;;;;;;6.68;2.40;;;20.40;76.50;;;;;;5054981;28;20028;-76
2021/05/17 12:27:23;;;;;;;7.47;2.90;;;20.30;76.60;;;;;;5087193;28;20083;-76
2021/05/17 12:30:01;;;;;;;6.97;2.40;;;20.20;76.70;;;;;;5054814;28;20108;-78
2021/05/17 12:32:32;;;;;;;6.65;2.40;;;20.20;76.90;;;;;;5054627;28;20404;-77
2021/05/17 12:35:00;;;;;;;5.78;2.65;;;20.10;76.90;;;;;;5054959;28;20052;-78
2021/05/17 12:37:32;;;;;;;7.68;2.70;;;20.10;77.10;;;;;;5054706;28;20480;-77
2021/05/17 12:40:11;;;;;;;6.93;2.38;;;20.10;77.00;;;;;;5054668;28;20485;-77
2021/05/17 12:42:37;;;;;;;6.47;2.25;;;20.10;77.00;;;;;;5054585;28;20181;-79
2021/05/17 12:45:08;;;;;;;7.28;2.05;;;20.30;76.80;;;;;;5054336;28;20431;-78
2021/05/17 12:47:41;;;;;;;5.90;2.30;;;20.30;76.30;;;;;;5053818;28;20029;-77
2021/05/17 12:50:25;;;;;;;7.28;2.58;;;20.30;76.20;;;;;;5054311;28;20440;-77
2021/05/17 12:53:11;;;;;;;4.35;2.35;;;20.20;76.40;;;;;;5054425;28;20021;-74
2021/05/17 12:55:48;;;;;;;3.92;1.70;;;20.10;76.70;;;;;;5086571;28;20406;-75
2021/05/17 12:58:24;;;;;;;4.78;2.22;;;20.10;77.10;;;;;;5054332;28;20021;-75
2021/05/17 13:00:53;;;;;;;4.75;2.28;;;20.00;77.50;;;;;;5054321;28;20481;-76
2021/05/17 13:03:29;;;;;;;4.30;2.30;;;20.00;77.60;;;;;;5052852;28;20066;-74
2021/05/17 13:06:04;;;;;;;4.60;2.00;;;20.00;77.60;;;;;;5053875;28;20037;-73
2021/05/17 13:08:51;;;;;;;7.30;2.33;;;20.00;77.60;;;;;;5054414;28;20503;-75
2021/05/17 13:11:25;;;;;;;5.47;1.95;;;19.90;77.70;;;;;;5043495;28;20117;-76
2021/05/17 13:14:09;;;;;;;4.38;1.70;;;20.00;77.30;;;;;;5053894;28;20463;-76
2021/05/17 13:16:48;;;;;;;3.78;1.75;;;20.10;76.80;;;;;;5054088;28;20431;-77
2021/05/17 13:23:01;;;;;;;4.85;1.85;;;20.30;75.60;;;;;;5034248;28;20041;-77
2021/05/17 13:31:04;;;;;;;4.05;1.63;;;20.30;75.30;;;;;;5049797;28;20047;-78
2021/05/17 13:33:37;;;;;;;2.78;1.27;;;20.30;75.20;;;;;;5052478;28;20035;-77